Pays
Station

 

Conditions  météo  pour  Toledo, Metcalf Field  -  Etats-Unis    Etats-Unis

  
15 °C
    
 
 

METAR pour Toledo, Metcalf Field :

KTDZ 231153Z AUTO 33004KT 5SM BR CLR 15/13 A3016 RMK AO2 SLP210 T01500133 10150 20111 53019

 

Voici le bulletin pour Toledo, Metcalf Field - Etats-Unis.
 
Le bulletin a été fait il y a 39 minutes, à 11:53 UTC .
Le vent soufflait à la vitesse de 2.1 mètres par seconde de Nord/Nord-ouest (330°).
 
La température était de 15 °C, avec un point de rosée à 13 °C.
La pression atmosphérique était de 1021 hPa.
L'humidité relative était de 87.8%.
 
Le ciel était clair.
 
La visibilité globale était de 8.0 kilomètres.
 
Actuellement brume.

 
 
 

Pays :   A   B   C   D   E   F   G   H   I   J   K   L   M   N   O   P   Q   R   S   T   U   V   W   Y   Z

 

Partenaires :  Info Météo avec Met'info
Météo Marine avec MeteoMarine.net
Infos Site  |  Infos Légales  |  Crédits  |  Confidentialité
Contactez-nous  |  Ajouter aux favoris
© 2013-2018 METAR - Tous droits réservés